sensor_id;sensor_type;location;lat;lon;timestamp;noise_LAeq;noise_LA_min;noise_LA_max;noise_LA01;noise_LA95
45478;Laerm;31227;47.986;11.868;2023-04-25T00:02:01;37.66;34.69;41.38;;
45478;Laerm;31227;47.986;11.868;2023-04-25T00:04:27;37.64;34.31;40.98;;
45478;Laerm;31227;47.986;11.868;2023-04-25T00:06:54;37.64;34.31;41.30;;
45478;Laerm;31227;47.986;11.868;2023-04-25T00:09:19;37.65;34.69;41.53;;
45478;Laerm;31227;47.986;11.868;2023-04-25T00:11:45;37.63;33.90;41.14;;
45478;Laerm;31227;47.986;11.868;2023-04-25T00:14:10;37.68;34.31;41.14;;
45478;Laerm;31227;47.986;11.868;2023-04-25T00:16:36;37.64;34.69;41.38;;
45478;Laerm;31227;47.986;11.868;2023-04-25T00:19:04;37.62;33.90;41.06;;
45478;Laerm;31227;47.986;11.868;2023-04-25T00:21:49;37.62;34.31;40.98;;
45478;Laerm;31227;47.986;11.868;2023-04-25T00:24:15;37.62;34.31;44.31;;
45478;Laerm;31227;47.986;11.868;2023-04-25T00:26:40;37.64;34.31;40.71;;
45478;Laerm;31227;47.986;11.868;2023-04-25T00:29:05;37.62;34.31;40.33;;
45478;Laerm;31227;47.986;11.868;2023-04-25T00:31:31;37.65;34.31;40.80;;
45478;Laerm;31227;47.986;11.868;2023-04-25T00:33:56;37.63;34.31;40.43;;
45478;Laerm;31227;47.986;11.868;2023-04-25T00:36:39;37.60;33.90;40.53;;
45478;Laerm;31227;47.986;11.868;2023-04-25T00:39:11;37.57;34.31;40.03;;
45478;Laerm;31227;47.986;11.868;2023-04-25T00:41:36;37.62;34.69;41.82;;
45478;Laerm;31227;47.986;11.868;2023-04-25T00:44:01;37.56;34.69;48.63;;
45478;Laerm;31227;47.986;11.868;2023-04-25T00:46:28;37.53;34.31;40.03;;
45478;Laerm;31227;47.986;11.868;2023-04-25T00:48:54;37.54;34.31;40.03;;
45478;Laerm;31227;47.986;11.868;2023-04-25T00:51:19;37.60;33.90;40.53;;
45478;Laerm;31227;47.986;11.868;2023-04-25T00:53:45;37.56;33.90;40.08;;
45478;Laerm;31227;47.986;11.868;2023-04-25T00:56:11;37.56;33.90;40.13;;
45478;Laerm;31227;47.986;11.868;2023-04-25T00:58:36;37.55;34.31;39.92;;
45478;Laerm;31227;47.986;11.868;2023-04-25T01:01:02;37.54;33.90;39.81;;
45478;Laerm;31227;47.986;11.868;2023-04-25T01:03:27;37.56;34.31;40.03;;
45478;Laerm;31227;47.986;11.868;2023-04-25T01:05:53;37.68;33.90;43.09;;
45478;Laerm;31227;47.986;11.868;2023-04-25T01:08:19;37.54;34.31;40.03;;
45478;Laerm;31227;47.986;11.868;2023-04-25T01:10:46;37.56;34.31;40.13;;
45478;Laerm;31227;47.986;11.868;2023-04-25T01:13:11;37.78;34.31;42.79;;
45478;Laerm;31227;47.986;11.868;2023-04-25T01:15:36;37.56;34.31;39.92;;
45478;Laerm;31227;47.986;11.868;2023-04-25T01:18:02;37.58;34.69;40.13;;
45478;Laerm;31227;47.986;11.868;2023-04-25T01:20:27;37.54;33.90;39.92;;
45478;Laerm;31227;47.986;11.868;2023-04-25T01:22:53;37.64;33.97;40.98;;
45478;Laerm;31227;47.986;11.868;2023-04-25T01:25:20;37.57;33.90;39.81;;
45478;Laerm;31227;47.986;11.868;2023-04-25T01:27:45;37.60;33.90;39.92;;
45478;Laerm;31227;47.986;11.868;2023-04-25T01:30:11;37.60;34.69;40.62;;
45478;Laerm;31227;47.986;11.868;2023-04-25T01:32:36;37.60;33.90;40.80;;
45478;Laerm;31227;47.986;11.868;2023-04-25T01:35:08;37.54;33.90;40.03;;
45478;Laerm;31227;47.986;11.868;2023-04-25T01:37:41;37.54;33.90;40.03;;
45478;Laerm;31227;47.986;11.868;2023-04-25T01:40:10;37.53;34.69;40.03;;
45478;Laerm;31227;47.986;11.868;2023-04-25T01:42:37;37.55;34.31;39.81;;
45478;Laerm;31227;47.986;11.868;2023-04-25T01:45:02;37.58;33.90;40.45;;
45478;Laerm;31227;47.986;11.868;2023-04-25T01:47:28;37.64;34.31;40.71;;
45478;Laerm;31227;47.986;11.868;2023-04-25T01:49:53;37.52;34.69;39.92;;
45478;Laerm;31227;47.986;11.868;2023-04-25T01:52:18;37.52;34.31;39.92;;
45478;Laerm;31227;47.986;11.868;2023-04-25T01:54:44;37.66;34.69;41.19;;
45478;Laerm;31227;47.986;11.868;2023-04-25T01:57:13;37.51;33.90;40.23;;
45478;Laerm;31227;47.986;11.868;2023-04-25T01:59:38;37.49;34.69;40.23;;
45478;Laerm;31227;47.986;11.868;2023-04-25T02:02:04;37.55;34.34;40.13;;
45478;Laerm;31227;47.986;11.868;2023-04-25T02:04:30;37.66;34.69;42.41;;
45478;Laerm;31227;47.986;11.868;2023-04-25T02:06:55;37.51;34.31;40.23;;
45478;Laerm;31227;47.986;11.868;2023-04-25T02:09:20;37.51;34.31;40.33;;
45478;Laerm;31227;47.986;11.868;2023-04-25T02:11:46;37.62;33.90;41.14;;
45478;Laerm;31227;47.986;11.868;2023-04-25T02:14:11;37.53;33.44;40.13;;
45478;Laerm;31227;47.986;11.868;2023-04-25T02:16:36;37.49;32.93;40.23;;
45478;Laerm;31227;47.986;11.868;2023-04-25T02:19:02;37.48;33.44;40.43;;
45478;Laerm;31227;47.986;11.868;2023-04-25T02:21:27;37.50;34.31;39.92;;
45478;Laerm;31227;47.986;11.868;2023-04-25T02:23:52;37.61;33.90;43.09;;
45478;Laerm;31227;47.986;11.868;2023-04-25T02:26:18;37.47;33.90;39.70;;
45478;Laerm;31227;47.986;11.868;2023-04-25T02:28:43;37.50;33.90;40.03;;
45478;Laerm;31227;47.986;11.868;2023-04-25T02:31:08;37.56;34.31;41.53;;
45478;Laerm;31227;47.986;11.868;2023-04-25T02:33:33;37.65;33.90;43.63;;
45478;Laerm;31227;47.986;11.868;2023-04-25T02:35:59;37.54;34.31;40.89;;
45478;Laerm;31227;47.986;11.868;2023-04-25T02:38:24;37.47;33.90;40.03;;
45478;Laerm;31227;47.986;11.868;2023-04-25T02:40:50;37.44;34.31;39.70;;
45478;Laerm;31227;47.986;11.868;2023-04-25T02:43:15;37.43;33.90;39.70;;
45478;Laerm;31227;47.986;11.868;2023-04-25T02:45:41;37.47;34.31;39.92;;
45478;Laerm;31227;47.986;11.868;2023-04-25T02:48:06;37.57;34.31;41.61;;
45478;Laerm;31227;47.986;11.868;2023-04-25T02:50:31;37.46;33.44;39.92;;
45478;Laerm;31227;47.986;11.868;2023-04-25T02:52:56;37.46;33.90;40.23;;
45478;Laerm;31227;47.986;11.868;2023-04-25T02:55:22;37.46;33.90;40.13;;
45478;Laerm;31227;47.986;11.868;2023-04-25T02:57:47;37.45;34.31;39.92;;
45478;Laerm;31227;47.986;11.868;2023-04-25T03:00:12;37.49;34.31;40.23;;
45478;Laerm;31227;47.986;11.868;2023-04-25T03:02:39;37.50;34.31;40.71;;
45478;Laerm;31227;47.986;11.868;2023-04-25T03:05:04;37.49;34.31;40.33;;
45478;Laerm;31227;47.986;11.868;2023-04-25T03:07:29;37.72;33.90;44.23;;
45478;Laerm;31227;47.986;11.868;2023-04-25T03:09:54;37.54;33.90;40.13;;
45478;Laerm;31227;47.986;11.868;2023-04-25T03:12:21;37.70;34.31;41.61;;
45478;Laerm;31227;47.986;11.868;2023-04-25T03:14:46;37.59;34.31;40.23;;
45478;Laerm;31227;47.986;11.868;2023-04-25T03:17:12;37.62;33.90;42.47;;
45478;Laerm;31227;47.986;11.868;2023-04-25T03:19:37;37.63;33.90;40.43;;
45478;Laerm;31227;47.986;11.868;2023-04-25T03:22:02;37.63;34.69;40.33;;
45478;Laerm;31227;47.986;11.868;2023-04-25T03:24:27;37.77;34.69;40.98;;
45478;Laerm;31227;47.986;11.868;2023-04-25T03:26:53;37.94;34.69;41.22;;
45478;Laerm;31227;47.986;11.868;2023-04-25T03:29:18;38.08;34.69;43.58;;
45478;Laerm;31227;47.986;11.868;2023-04-25T03:31:43;37.94;35.04;40.63;;
45478;Laerm;31227;47.986;11.868;2023-04-25T03:34:09;38.30;35.36;42.16;;
45478;Laerm;31227;47.986;11.868;2023-04-25T03:36:34;38.43;35.36;44.15;;
45478;Laerm;31227;47.986;11.868;2023-04-25T03:38:59;38.31;35.36;40.54;;
45478;Laerm;31227;47.986;11.868;2023-04-25T03:41:25;38.42;35.36;41.61;;
45478;Laerm;31227;47.986;11.868;2023-04-25T03:43:50;38.64;35.04;43.68;;
45478;Laerm;31227;47.986;11.868;2023-04-25T03:46:15;38.83;35.59;51.27;;
45478;Laerm;31227;47.986;11.868;2023-04-25T03:48:40;38.53;35.59;43.42;;
45478;Laerm;31227;47.986;11.868;2023-04-25T03:51:06;39.00;35.36;50.32;;
45478;Laerm;31227;47.986;11.868;2023-04-25T03:53:31;38.99;35.94;48.03;;
45478;Laerm;31227;47.986;11.868;2023-04-25T03:55:56;38.57;35.36;43.19;;
45478;Laerm;31227;47.986;11.868;2023-04-25T03:58:21;38.63;35.36;43.63;;
45478;Laerm;31227;47.986;11.868;2023-04-25T04:00:48;38.54;35.36;44.58;;
45478;Laerm;31227;47.986;11.868;2023-04-25T04:03:13;38.38;35.36;41.75;;
45478;Laerm;31227;47.986;11.868;2023-04-25T04:05:39;38.34;35.04;44.11;;
45478;Laerm;31227;47.986;11.868;2023-04-25T04:08:05;38.52;35.36;44.20;;
45478;Laerm;31227;47.986;11.868;2023-04-25T04:10:31;38.27;34.69;41.96;;
45478;Laerm;31227;47.986;11.868;2023-04-25T04:12:56;38.43;35.04;43.68;;
45478;Laerm;31227;47.986;11.868;2023-04-25T04:15:21;38.43;35.36;44.23;;
45478;Laerm;31227;47.986;11.868;2023-04-25T04:17:47;38.42;35.36;44.51;;
45478;Laerm;31227;47.986;11.868;2023-04-25T04:20:13;38.39;35.04;43.29;;
45478;Laerm;31227;47.986;11.868;2023-04-25T04:22:38;38.15;35.04;41.89;;
45478;Laerm;31227;47.986;11.868;2023-04-25T04:25:03;38.47;34.31;42.76;;
45478;Laerm;31227;47.986;11.868;2023-04-25T04:27:30;38.15;34.69;41.68;;
45478;Laerm;31227;47.986;11.868;2023-04-25T04:29:56;38.22;35.04;43.34;;
45478;Laerm;31227;47.986;11.868;2023-04-25T04:32:21;38.31;33.90;42.93;;
45478;Laerm;31227;47.986;11.868;2023-04-25T04:34:48;38.25;34.69;43.99;;
45478;Laerm;31227;47.986;11.868;2023-04-25T04:37:13;38.15;34.31;41.22;;
45478;Laerm;31227;47.986;11.868;2023-04-25T04:39:39;38.00;34.31;40.89;;
45478;Laerm;31227;47.986;11.868;2023-04-25T04:42:05;38.10;34.31;41.30;;
45478;Laerm;31227;47.986;11.868;2023-04-25T04:44:31;38.35;34.69;43.63;;
45478;Laerm;31227;47.986;11.868;2023-04-25T04:47:00;38.20;34.69;42.03;;
45478;Laerm;31227;47.986;11.868;2023-04-25T04:49:25;38.11;34.31;42.22;;
45478;Laerm;31227;47.986;11.868;2023-04-25T04:51:51;38.28;34.69;41.53;;
45478;Laerm;31227;47.986;11.868;2023-04-25T04:54:17;38.09;34.69;42.47;;
45478;Laerm;31227;47.986;11.868;2023-04-25T04:56:42;38.16;34.69;41.14;;
45478;Laerm;31227;47.986;11.868;2023-04-25T04:59:08;37.99;34.31;41.46;;
45478;Laerm;31227;47.986;11.868;2023-04-25T05:01:34;38.41;34.69;44.76;;
45478;Laerm;31227;47.986;11.868;2023-04-25T05:04:01;38.27;34.31;41.89;;
45478;Laerm;31227;47.986;11.868;2023-04-25T05:06:27;38.36;35.04;43.39;;
45478;Laerm;31227;47.986;11.868;2023-04-25T05:08:54;38.30;34.69;41.81;;
45478;Laerm;31227;47.986;11.868;2023-04-25T05:11:19;38.64;35.04;48.03;;
45478;Laerm;31227;47.986;11.868;2023-04-25T05:13:45;38.39;35.04;41.82;;
45478;Laerm;31227;47.986;11.868;2023-04-25T05:16:11;38.40;35.04;43.63;;
45478;Laerm;31227;47.986;11.868;2023-04-25T05:18:36;38.12;33.90;41.22;;
45478;Laerm;31227;47.986;11.868;2023-04-25T05:21:02;38.48;35.04;42.76;;
45478;Laerm;31227;47.986;11.868;2023-04-25T05:23:27;38.63;34.69;42.22;;
45478;Laerm;31227;47.986;11.868;2023-04-25T05:25:53;38.27;35.04;42.58;;
45478;Laerm;31227;47.986;11.868;2023-04-25T05:28:18;38.63;35.04;43.90;;
45478;Laerm;31227;47.986;11.868;2023-04-25T05:30:43;38.69;34.31;45.77;;
45478;Laerm;31227;47.986;11.868;2023-04-25T05:33:08;38.35;35.04;41.38;;
45478;Laerm;31227;47.986;11.868;2023-04-25T05:35:34;38.22;35.31;40.98;;
45478;Laerm;31227;47.986;11.868;2023-04-25T05:37:59;38.27;35.04;43.19;;
45478;Laerm;31227;47.986;11.868;2023-04-25T05:40:24;38.38;34.69;42.09;;
45478;Laerm;31227;47.986;11.868;2023-04-25T05:42:50;38.46;35.04;42.47;;
45478;Laerm;31227;47.986;11.868;2023-04-25T05:45:18;38.43;34.34;41.30;;
45478;Laerm;31227;47.986;11.868;2023-04-25T05:47:43;38.37;35.36;41.68;;
45478;Laerm;31227;47.986;11.868;2023-04-25T05:50:17;38.69;34.69;43.09;;
45478;Laerm;31227;47.986;11.868;2023-04-25T05:52:43;38.39;35.66;40.80;;
45478;Laerm;31227;47.986;11.868;2023-04-25T05:55:08;38.31;35.04;42.22;;
45478;Laerm;31227;47.986;11.868;2023-04-25T05:57:33;38.64;35.36;46.73;;
45478;Laerm;31227;47.986;11.868;2023-04-25T05:59:59;38.97;35.36;42.88;;
45478;Laerm;31227;47.986;11.868;2023-04-25T06:02:24;38.58;35.04;42.03;;
45478;Laerm;31227;47.986;11.868;2023-04-25T06:04:50;38.75;35.36;43.04;;
45478;Laerm;31227;47.986;11.868;2023-04-25T06:07:16;38.65;34.69;41.82;;
45478;Laerm;31227;47.986;11.868;2023-04-25T06:09:42;38.57;35.31;46.28;;
45478;Laerm;31227;47.986;11.868;2023-04-25T06:12:08;38.56;35.04;43.54;;
45478;Laerm;31227;47.986;11.868;2023-04-25T06:14:33;38.67;34.69;54.36;;
45478;Laerm;31227;47.986;11.868;2023-04-25T06:16:59;38.90;35.36;44.87;;
45478;Laerm;31227;47.986;11.868;2023-04-25T06:19:24;38.57;35.66;44.35;;
45478;Laerm;31227;47.986;11.868;2023-04-25T06:21:49;38.60;35.04;42.65;;
45478;Laerm;31227;47.986;11.868;2023-04-25T06:24:15;38.53;35.04;42.53;;
45478;Laerm;31227;47.986;11.868;2023-04-25T06:26:40;38.82;35.36;45.77;;
45478;Laerm;31227;47.986;11.868;2023-04-25T06:29:05;38.47;35.04;42.93;;
45478;Laerm;31227;47.986;11.868;2023-04-25T06:31:30;38.54;35.04;42.09;;
45478;Laerm;31227;47.986;11.868;2023-04-25T06:33:57;38.62;35.36;42.59;;
45478;Laerm;31227;47.986;11.868;2023-04-25T06:36:23;38.83;35.36;43.49;;
45478;Laerm;31227;47.986;11.868;2023-04-25T06:38:53;38.82;35.36;42.41;;
45478;Laerm;31227;47.986;11.868;2023-04-25T06:41:18;38.80;35.66;44.27;;
45478;Laerm;31227;47.986;11.868;2023-04-25T06:43:43;38.87;35.66;42.65;;
45478;Laerm;31227;47.986;11.868;2023-04-25T06:46:09;38.66;35.66;42.35;;
45478;Laerm;31227;47.986;11.868;2023-04-25T06:48:34;38.87;35.04;43.81;;
45478;Laerm;31227;47.986;11.868;2023-04-25T06:50:59;38.81;35.66;43.04;;
45478;Laerm;31227;47.986;11.868;2023-04-25T06:53:25;39.39;35.66;49.85;;
45478;Laerm;31227;47.986;11.868;2023-04-25T06:55:53;39.09;35.36;43.49;;
45478;Laerm;31227;47.986;11.868;2023-04-25T06:58:18;39.20;35.94;46.02;;
45478;Laerm;31227;47.986;11.868;2023-04-25T07:00:44;38.59;35.86;41.68;;
45478;Laerm;31227;47.986;11.868;2023-04-25T07:03:09;38.99;35.36;43.68;;
45478;Laerm;31227;47.986;11.868;2023-04-25T07:05:34;38.80;35.36;43.77;;
45478;Laerm;31227;47.986;11.868;2023-04-25T07:08:00;38.83;36.20;41.46;;
45478;Laerm;31227;47.986;11.868;2023-04-25T07:10:25;38.80;35.66;45.57;;
45478;Laerm;31227;47.986;11.868;2023-04-25T07:12:51;39.36;35.66;49.53;;
45478;Laerm;31227;47.986;11.868;2023-04-25T07:15:16;38.94;36.10;42.47;;
45478;Laerm;31227;47.986;11.868;2023-04-25T07:17:41;39.00;35.94;44.03;;
45478;Laerm;31227;47.986;11.868;2023-04-25T07:20:07;39.15;35.94;44.87;;
45478;Laerm;31227;47.986;11.868;2023-04-25T07:22:34;39.17;35.94;47.81;;
45478;Laerm;31227;47.986;11.868;2023-04-25T07:24:59;39.25;35.36;45.07;;
45478;Laerm;31227;47.986;11.868;2023-04-25T07:27:24;39.30;35.66;47.38;;
45478;Laerm;31227;47.986;11.868;2023-04-25T07:29:50;38.93;35.36;43.72;;
45478;Laerm;31227;47.986;11.868;2023-04-25T07:32:15;38.86;35.66;42.16;;
45478;Laerm;31227;47.986;11.868;2023-04-25T07:34:40;39.24;35.66;49.79;;
45478;Laerm;31227;47.986;11.868;2023-04-25T07:37:06;39.56;35.36;53.10;;
45478;Laerm;31227;47.986;11.868;2023-04-25T07:39:31;39.30;36.20;44.69;;
45478;Laerm;31227;47.986;11.868;2023-04-25T07:41:57;39.21;35.94;43.34;;
45478;Laerm;31227;47.986;11.868;2023-04-25T07:44:23;39.17;35.94;44.80;;
45478;Laerm;31227;47.986;11.868;2023-04-25T07:46:48;39.78;35.94;55.53;;
45478;Laerm;31227;47.986;11.868;2023-04-25T07:49:13;39.57;36.20;48.73;;
45478;Laerm;31227;47.986;11.868;2023-04-25T07:51:39;39.18;35.94;45.23;;
45478;Laerm;31227;47.986;11.868;2023-04-25T07:54:04;38.75;35.66;42.53;;
45478;Laerm;31227;47.986;11.868;2023-04-25T07:56:30;39.50;36.45;48.43;;
45478;Laerm;31227;47.986;11.868;2023-04-25T07:58:55;38.83;35.66;42.88;;
45478;Laerm;31227;47.986;11.868;2023-04-25T08:01:21;39.40;36.20;43.94;;
45478;Laerm;31227;47.986;11.868;2023-04-25T08:03:47;39.24;35.36;43.14;;
45478;Laerm;31227;47.986;11.868;2023-04-25T08:06:12;39.06;35.66;43.39;;
45478;Laerm;31227;47.986;11.868;2023-04-25T08:08:37;38.94;35.94;43.39;;
45478;Laerm;31227;47.986;11.868;2023-04-25T08:11:02;39.24;35.36;48.28;;
45478;Laerm;31227;47.986;11.868;2023-04-25T08:13:27;39.50;35.94;54.93;;
45478;Laerm;31227;47.986;11.868;2023-04-25T08:15:53;39.24;35.94;45.27;;
45478;Laerm;31227;47.986;11.868;2023-04-25T08:18:18;39.51;35.94;44.73;;
45478;Laerm;31227;47.986;11.868;2023-04-25T08:20:43;39.21;35.94;44.62;;
45478;Laerm;31227;47.986;11.868;2023-04-25T08:23:08;39.14;35.94;48.77;;
45478;Laerm;31227;47.986;11.868;2023-04-25T08:25:35;39.28;35.66;43.29;;
45478;Laerm;31227;47.986;11.868;2023-04-25T08:28:00;39.88;35.66;50.22;;
45478;Laerm;31227;47.986;11.868;2023-04-25T08:30:27;39.79;36.20;44.69;;
45478;Laerm;31227;47.986;11.868;2023-04-25T08:32:53;40.08;36.69;48.87;;
45478;Laerm;31227;47.986;11.868;2023-04-25T08:35:18;39.28;35.66;44.15;;
45478;Laerm;31227;47.986;11.868;2023-04-25T08:37:43;39.74;35.94;49.75;;
45478;Laerm;31227;47.986;11.868;2023-04-25T08:40:11;39.10;35.04;44.11;;
45478;Laerm;31227;47.986;11.868;2023-04-25T08:42:36;39.43;36.45;45.77;;
45478;Laerm;31227;47.986;11.868;2023-04-25T08:45:02;39.46;35.66;49.18;;
45478;Laerm;31227;47.986;11.868;2023-04-25T08:47:28;39.68;35.94;45.75;;
45478;Laerm;31227;47.986;11.868;2023-04-25T08:49:54;39.39;35.94;49.53;;
45478;Laerm;31227;47.986;11.868;2023-04-25T08:52:21;39.52;36.45;45.36;;
45478;Laerm;31227;47.986;11.868;2023-04-25T08:54:47;39.48;35.94;48.48;;
45478;Laerm;31227;47.986;11.868;2023-04-25T08:57:13;40.01;36.69;44.39;;
45478;Laerm;31227;47.986;11.868;2023-04-25T08:59:40;39.58;35.94;51.07;;
45478;Laerm;31227;47.986;11.868;2023-04-25T09:02:09;39.74;36.20;50.48;;
45478;Laerm;31227;47.986;11.868;2023-04-25T09:04:39;48.94;35.94;73.85;;
45478;Laerm;31227;47.986;11.868;2023-04-25T09:07:04;39.64;36.45;49.58;;
45478;Laerm;31227;47.986;11.868;2023-04-25T09:09:30;40.16;35.36;54.53;;
45478;Laerm;31227;47.986;11.868;2023-04-25T09:11:55;39.56;35.94;46.20;;
45478;Laerm;31227;47.986;11.868;2023-04-25T09:14:21;39.88;35.94;47.40;;
45478;Laerm;31227;47.986;11.868;2023-04-25T09:19:25;40.05;36.45;52.72;;
45478;Laerm;31227;47.986;11.868;2023-04-25T09:21:50;39.99;36.69;55.09;;
45478;Laerm;31227;47.986;11.868;2023-04-25T09:24:15;39.96;36.20;46.87;;
45478;Laerm;31227;47.986;11.868;2023-04-25T09:26:41;39.79;35.94;44.69;;
45478;Laerm;31227;47.986;11.868;2023-04-25T09:29:06;40.26;36.20;69.38;;
45478;Laerm;31227;47.986;11.868;2023-04-25T09:31:32;39.86;36.20;47.88;;
45478;Laerm;31227;47.986;11.868;2023-04-25T09:33:58;39.36;35.36;44.73;;
45478;Laerm;31227;47.986;11.868;2023-04-25T09:36:23;39.73;35.36;45.77;;
45478;Laerm;31227;47.986;11.868;2023-04-25T09:38:50;39.38;35.66;43.58;;
45478;Laerm;31227;47.986;11.868;2023-04-25T09:41:16;39.19;35.36;44.11;;
45478;Laerm;31227;47.986;11.868;2023-04-25T09:43:47;39.57;36.45;47.90;;
45478;Laerm;31227;47.986;11.868;2023-04-25T09:46:14;39.48;35.36;45.11;;
45478;Laerm;31227;47.986;11.868;2023-04-25T09:48:39;39.47;35.66;49.78;;
45478;Laerm;31227;47.986;11.868;2023-04-25T09:51:11;40.11;35.94;51.16;;
45478;Laerm;31227;47.986;11.868;2023-04-25T09:53:39;39.55;35.94;44.03;;
45478;Laerm;31227;47.986;11.868;2023-04-25T09:56:05;39.61;36.45;45.66;;
45478;Laerm;31227;47.986;11.868;2023-04-25T09:58:34;40.36;36.69;46.71;;
45478;Laerm;31227;47.986;11.868;2023-04-25T10:01:00;39.86;36.45;44.07;;
45478;Laerm;31227;47.986;11.868;2023-04-25T10:03:27;40.01;36.69;44.90;;
45478;Laerm;31227;47.986;11.868;2023-04-25T10:05:54;40.40;35.94;46.02;;
45478;Laerm;31227;47.986;11.868;2023-04-25T10:08:20;39.75;36.45;42.98;;
45478;Laerm;31227;47.986;11.868;2023-04-25T10:10:47;40.34;36.69;51.62;;
45478;Laerm;31227;47.986;11.868;2023-04-25T10:13:13;39.71;36.45;44.73;;
45478;Laerm;31227;47.986;11.868;2023-04-25T10:15:39;40.00;36.20;47.24;;
45478;Laerm;31227;47.986;11.868;2023-04-25T10:18:05;40.33;35.94;46.57;;
45478;Laerm;31227;47.986;11.868;2023-04-25T10:20:31;41.46;36.45;66.42;;
45478;Laerm;31227;47.986;11.868;2023-04-25T10:22:58;39.54;35.94;42.82;;
45478;Laerm;31227;47.986;11.868;2023-04-25T10:25:25;39.49;36.20;43.49;;
45478;Laerm;31227;47.986;11.868;2023-04-25T10:27:51;39.47;36.34;44.54;;
45478;Laerm;31227;47.986;11.868;2023-04-25T10:30:16;39.30;35.86;44.15;;
45478;Laerm;31227;47.986;11.868;2023-04-25T10:32:43;40.06;35.66;48.03;;
45478;Laerm;31227;47.986;11.868;2023-04-25T10:35:15;39.62;36.20;47.12;;
45478;Laerm;31227;47.986;11.868;2023-04-25T10:40:25;39.76;36.20;50.08;;
45478;Laerm;31227;47.986;11.868;2023-04-25T10:42:53;39.64;35.94;43.86;;
45478;Laerm;31227;47.986;11.868;2023-04-25T10:45:19;40.08;36.77;46.55;;
45478;Laerm;31227;47.986;11.868;2023-04-25T10:47:45;40.13;35.94;50.91;;
45478;Laerm;31227;47.986;11.868;2023-04-25T10:50:10;40.00;36.45;44.47;;
45478;Laerm;31227;47.986;11.868;2023-04-25T10:52:36;40.17;36.69;46.80;;
45478;Laerm;31227;47.986;11.868;2023-04-25T10:55:03;40.76;36.45;52.37;;
45478;Laerm;31227;47.986;11.868;2023-04-25T10:57:49;40.47;36.45;49.85;;
45478;Laerm;31227;47.986;11.868;2023-04-25T11:00:19;40.07;36.45;45.11;;
45478;Laerm;31227;47.986;11.868;2023-04-25T11:02:47;40.27;36.91;45.48;;
45478;Laerm;31227;47.986;11.868;2023-04-25T11:05:20;40.19;36.91;49.72;;
45478;Laerm;31227;47.986;11.868;2023-04-25T11:07:51;41.00;36.91;53.91;;
45478;Laerm;31227;47.986;11.868;2023-04-25T11:10:17;39.97;35.94;47.34;;
45478;Laerm;31227;47.986;11.868;2023-04-25T11:12:42;41.09;36.69;50.75;;
45478;Laerm;31227;47.986;11.868;2023-04-25T11:15:08;40.24;36.69;46.66;;
45478;Laerm;31227;47.986;11.868;2023-04-25T11:17:33;40.62;36.69;52.81;;
45478;Laerm;31227;47.986;11.868;2023-04-25T11:19:59;40.54;36.20;50.74;;
45478;Laerm;31227;47.986;11.868;2023-04-25T11:22:25;40.43;36.69;47.26;;
45478;Laerm;31227;47.986;11.868;2023-04-25T11:24:51;41.00;36.91;60.92;;
45478;Laerm;31227;47.986;11.868;2023-04-25T11:27:16;40.15;36.45;45.01;;
45478;Laerm;31227;47.986;11.868;2023-04-25T11:29:42;40.47;36.20;49.09;;
45478;Laerm;31227;47.986;11.868;2023-04-25T11:32:07;41.63;37.12;54.36;;
45478;Laerm;31227;47.986;11.868;2023-04-25T11:34:33;42.47;37.12;57.67;;
45478;Laerm;31227;47.986;11.868;2023-04-25T11:36:59;41.77;36.45;50.39;;
45478;Laerm;31227;47.986;11.868;2023-04-25T11:39:25;42.50;36.20;61.48;;
45478;Laerm;31227;47.986;11.868;2023-04-25T11:41:51;41.72;36.45;61.66;;
45478;Laerm;31227;47.986;11.868;2023-04-25T11:44:17;40.79;35.94;50.89;;
45478;Laerm;31227;47.986;11.868;2023-04-25T11:46:42;41.63;36.34;67.34;;
45478;Laerm;31227;47.986;11.868;2023-04-25T11:49:07;40.31;36.45;49.80;;
45478;Laerm;31227;47.986;11.868;2023-04-25T11:54:24;41.62;36.20;68.37;;
45478;Laerm;31227;47.986;11.868;2023-04-25T11:56:51;39.82;36.20;49.39;;
45478;Laerm;31227;47.986;11.868;2023-04-25T11:59:32;39.57;36.20;51.27;;
45478;Laerm;31227;47.986;11.868;2023-04-25T12:02:00;39.73;36.45;46.93;;
45478;Laerm;31227;47.986;11.868;2023-04-25T12:04:29;39.69;35.94;49.69;;
45478;Laerm;31227;47.986;11.868;2023-04-25T12:06:58;39.71;35.36;45.97;;
45478;Laerm;31227;47.986;11.868;2023-04-25T12:09:39;39.49;35.36;49.08;;
45478;Laerm;31227;47.986;11.868;2023-04-25T12:12:34;39.86;35.66;54.49;;
45478;Laerm;31227;47.986;11.868;2023-04-25T12:17:34;39.48;35.94;48.67;;
45478;Laerm;31227;47.986;11.868;2023-04-25T12:20:00;39.32;35.36;46.43;;
45478;Laerm;31227;47.986;11.868;2023-04-25T12:22:30;39.47;35.36;46.40;;
45478;Laerm;31227;47.986;11.868;2023-04-25T12:24:56;39.04;35.66;42.41;;
45478;Laerm;31227;47.986;11.868;2023-04-25T12:27:23;39.12;35.66;43.09;;
45478;Laerm;31227;47.986;11.868;2023-04-25T12:29:54;39.36;35.66;45.51;;
45478;Laerm;31227;47.986;11.868;2023-04-25T12:32:20;38.91;35.36;44.19;;
45478;Laerm;31227;47.986;11.868;2023-04-25T12:34:45;39.25;35.36;60.18;;
45478;Laerm;31227;47.986;11.868;2023-04-25T12:37:11;39.02;35.66;42.65;;
45478;Laerm;31227;47.986;11.868;2023-04-25T12:39:36;38.92;34.69;43.99;;
45478;Laerm;31227;47.986;11.868;2023-04-25T12:42:01;38.72;35.66;42.47;;
45478;Laerm;31227;47.986;11.868;2023-04-25T12:44:28;38.65;34.69;43.09;;
45478;Laerm;31227;47.986;11.868;2023-04-25T12:46:54;38.68;34.69;43.86;;
45478;Laerm;31227;47.986;11.868;2023-04-25T12:49:19;38.33;35.04;40.53;;
45478;Laerm;31227;47.986;11.868;2023-04-25T12:51:45;38.87;35.66;45.39;;
45478;Laerm;31227;47.986;11.868;2023-04-25T12:54:10;39.02;35.36;47.06;;
45478;Laerm;31227;47.986;11.868;2023-04-25T12:56:36;38.66;35.31;44.19;;
45478;Laerm;31227;47.986;11.868;2023-04-25T12:59:02;38.60;34.69;43.81;;
45478;Laerm;31227;47.986;11.868;2023-04-25T13:01:28;38.61;35.04;41.46;;
45478;Laerm;31227;47.986;11.868;2023-04-25T13:03:53;38.80;35.04;44.39;;
45478;Laerm;31227;47.986;11.868;2023-04-25T13:06:19;39.01;35.66;44.07;;
45478;Laerm;31227;47.986;11.868;2023-04-25T13:08:44;38.88;33.90;43.63;;
45478;Laerm;31227;47.986;11.868;2023-04-25T13:11:10;38.63;35.66;44.39;;
45478;Laerm;31227;47.986;11.868;2023-04-25T13:13:36;38.66;35.66;41.68;;
45478;Laerm;31227;47.986;11.868;2023-04-25T13:16:01;38.96;35.66;43.77;;
45478;Laerm;31227;47.986;11.868;2023-04-25T13:18:27;39.30;35.66;46.38;;
45478;Laerm;31227;47.986;11.868;2023-04-25T13:20:52;39.04;35.36;45.86;;
45478;Laerm;31227;47.986;11.868;2023-04-25T13:23:18;39.01;35.36;43.85;;
45478;Laerm;31227;47.986;11.868;2023-04-25T13:25:43;39.01;35.66;45.20;;
45478;Laerm;31227;47.986;11.868;2023-04-25T13:28:08;38.78;34.69;45.91;;
45478;Laerm;31227;47.986;11.868;2023-04-25T13:30:34;38.94;35.04;45.93;;
45478;Laerm;31227;47.986;11.868;2023-04-25T13:32:59;39.03;35.94;44.80;;
45478;Laerm;31227;47.986;11.868;2023-04-25T13:35:28;38.93;35.36;46.87;;
45478;Laerm;31227;47.986;11.868;2023-04-25T13:37:53;39.00;35.66;43.04;;